createdAt,value
2019-05-17T00:00:58.577Z,312.90
2019-05-17T00:01:58.589Z,312.68
2019-05-17T00:02:58.590Z,311.97
2019-05-17T00:03:58.581Z,312.40
2019-05-17T00:04:58.544Z,312.42
2019-05-17T00:05:58.527Z,311.74
2019-05-17T00:06:58.515Z,312.59
2019-05-17T00:07:58.519Z,311.91
2019-05-17T00:08:58.502Z,312.23
2019-05-17T00:09:58.478Z,312.79
2019-05-17T00:10:58.469Z,312.74
2019-05-17T00:11:58.460Z,312.50
2019-05-17T00:12:58.472Z,312.45
2019-05-17T00:13:58.445Z,312.54
2019-05-17T00:14:58.430Z,312.29
2019-05-17T00:15:58.421Z,312.15
2019-05-17T00:16:58.404Z,312.56
2019-05-17T00:17:58.411Z,312.86
2019-05-17T00:18:58.385Z,312.60
2019-05-17T00:19:58.383Z,312.52
2019-05-17T00:20:58.354Z,312.48
2019-05-17T00:21:58.362Z,313.82
2019-05-17T00:22:58.352Z,313.90
2019-05-17T00:23:58.334Z,311.89
2019-05-17T00:24:58.311Z,312.58
2019-05-17T00:25:58.323Z,313.59
2019-05-17T00:26:58.671Z,312.40
2019-05-17T00:27:58.310Z,312.99
2019-05-17T00:28:58.270Z,312.68
2019-05-17T00:29:58.266Z,312.21
2019-05-17T00:30:58.244Z,312.26
2019-05-17T00:31:58.244Z,312.54
2019-05-17T00:32:58.262Z,312.74
2019-05-17T00:33:58.213Z,311.90
2019-05-17T00:34:58.203Z,312.30
2019-05-17T00:35:58.198Z,312.29
2019-05-17T00:36:58.189Z,312.21
2019-05-17T00:37:58.166Z,312.45
2019-05-17T00:38:58.183Z,312.86
2019-05-17T00:39:58.147Z,312.37
2019-05-17T00:40:58.141Z,312.40
2019-05-17T00:41:58.129Z,312.83
2019-05-17T00:42:58.126Z,312.52
2019-05-17T00:43:58.135Z,313.64
2019-05-17T00:44:58.086Z,312.78
2019-05-17T00:45:58.086Z,312.60
2019-05-17T00:46:58.834Z,313.03
2019-05-17T00:47:58.069Z,312.53
2019-05-17T00:48:58.078Z,312.94
2019-05-17T00:49:58.065Z,313.33
2019-05-17T00:51:02.137Z,312.92
2019-05-17T00:51:58.022Z,312.49
2019-05-17T00:52:58.006Z,312.76
2019-05-17T00:53:58.010Z,312.64
2019-05-17T00:54:57.986Z,312.51
2019-05-17T00:55:57.977Z,312.74
2019-05-17T00:56:57.954Z,307.37
2019-05-17T00:57:57.947Z,312.88
2019-05-17T00:58:57.981Z,312.69
2019-05-17T00:59:57.928Z,312.90
2019-05-17T01:00:57.918Z,312.88
2019-05-17T01:01:57.923Z,312.77
2019-05-17T01:02:57.899Z,313.67
2019-05-17T01:03:57.901Z,313.44
2019-05-17T01:04:57.873Z,307.34
2019-05-17T01:05:57.871Z,307.34
2019-05-17T01:06:57.844Z,307.09
2019-05-17T01:07:57.837Z,306.85
2019-05-17T01:09:03.486Z,307.28
2019-05-17T01:09:58.811Z,307.06
2019-05-17T01:10:57.809Z,306.99
2019-05-17T01:11:57.791Z,307.01
2019-05-17T01:12:57.775Z,307.55
2019-05-17T01:13:58.689Z,315.07
2019-05-17T01:14:58.310Z,313.16
2019-05-17T01:15:57.743Z,313.23
2019-05-17T01:16:57.737Z,313.24
2019-05-17T01:17:57.737Z,315.12
2019-05-17T01:18:57.739Z,313.79
2019-05-17T01:19:57.713Z,314.22
2019-05-17T01:20:57.713Z,313.68
2019-05-17T01:21:57.681Z,313.67
2019-05-17T01:22:57.682Z,314.08
2019-05-17T01:23:57.689Z,308.29
2019-05-17T01:24:57.652Z,314.06
2019-05-17T01:25:57.635Z,308.04
2019-05-17T01:26:57.622Z,307.91
2019-05-17T01:27:57.618Z,308.04
2019-05-17T01:28:57.621Z,307.85
2019-05-17T01:29:57.585Z,313.42
2019-05-17T01:30:57.593Z,313.85
2019-05-17T01:31:57.597Z,313.49
2019-05-17T01:32:57.558Z,313.71
2019-05-17T01:33:57.569Z,313.41
2019-05-17T01:34:57.557Z,308.34
2019-05-17T01:35:57.531Z,308.24
2019-05-17T01:36:57.517Z,308.05
2019-05-17T01:37:57.518Z,313.04
2019-05-17T01:38:57.768Z,307.98
2019-05-17T01:39:57.528Z,313.35
2019-05-17T01:40:57.470Z,307.60
2019-05-17T01:41:57.470Z,313.37
2019-05-17T01:42:58.202Z,313.32
2019-05-17T01:43:57.443Z,313.25
2019-05-17T01:44:57.441Z,313.44
2019-05-17T01:45:57.545Z,313.18
2019-05-17T01:46:57.404Z,313.18
2019-05-17T01:47:57.392Z,313.62
2019-05-17T01:48:57.833Z,313.44
2019-05-17T01:49:57.709Z,314.06
2019-05-17T01:50:57.365Z,313.42
2019-05-17T01:51:57.343Z,313.56
2019-05-17T01:52:57.338Z,312.84
2019-05-17T01:53:57.480Z,313.56
2019-05-17T01:54:57.332Z,313.37
2019-05-17T01:55:57.300Z,313.38
2019-05-17T01:56:57.300Z,313.10
2019-05-17T01:57:57.268Z,313.60
2019-05-17T01:58:57.572Z,313.37
2019-05-17T01:59:57.322Z,313.13
2019-05-17T02:00:57.509Z,315.99
2019-05-17T02:01:57.250Z,313.72
2019-05-17T02:02:57.734Z,313.37
2019-05-17T02:03:57.602Z,314.51
2019-05-17T02:04:57.227Z,309.99
2019-05-17T02:05:57.203Z,315.22
2019-05-17T02:06:57.470Z,308.44
2019-05-17T02:07:57.189Z,315.12
2019-05-17T02:08:57.148Z,314.65
2019-05-17T02:09:57.190Z,315.71
2019-05-17T02:10:57.490Z,313.88
2019-05-17T02:11:57.224Z,313.58
2019-05-17T02:12:57.160Z,312.93
2019-05-17T02:13:57.099Z,312.90
2019-05-17T02:14:57.622Z,312.45
2019-05-17T02:15:57.084Z,312.10
2019-05-17T02:16:57.403Z,312.61
2019-05-17T02:17:57.435Z,312.46
2019-05-17T02:18:57.425Z,314.63
2019-05-17T02:19:57.401Z,312.43
2019-05-17T02:20:57.193Z,313.97
2019-05-17T02:21:57.159Z,312.39
2019-05-17T02:22:57.014Z,312.44
2019-05-17T02:23:57.179Z,313.42
2019-05-17T02:24:56.998Z,312.84
2019-05-17T02:25:57.270Z,313.12
2019-05-17T02:26:57.139Z,314.77
2019-05-17T02:27:56.957Z,313.39
2019-05-17T02:28:56.949Z,313.37
2019-05-17T02:29:56.959Z,313.23
2019-05-17T02:30:56.929Z,313.01
2019-05-17T02:31:56.937Z,313.00
2019-05-17T02:32:56.892Z,312.98
2019-05-17T02:33:56.888Z,312.87
2019-05-17T02:34:56.917Z,313.00
2019-05-17T02:35:56.885Z,317.05
2019-05-17T02:36:56.845Z,315.57
2019-05-17T02:37:56.839Z,317.01
2019-05-17T02:38:56.834Z,315.83
2019-05-17T02:40:03.019Z,314.85
2019-05-17T02:40:57.836Z,314.25
2019-05-17T02:41:56.800Z,313.98
2019-05-17T02:42:56.803Z,313.86
2019-05-17T02:43:56.766Z,313.97
2019-05-17T02:44:56.771Z,314.05
2019-05-17T02:45:56.757Z,314.35
2019-05-17T02:46:56.727Z,314.02
2019-05-17T02:47:56.738Z,314.39
2019-05-17T02:48:56.740Z,314.31
2019-05-17T02:49:57.403Z,314.00
2019-05-17T02:50:56.721Z,313.74
2019-05-17T02:51:56.703Z,313.62
2019-05-17T02:52:56.669Z,313.83
2019-05-17T02:53:56.669Z,314.14
2019-05-17T02:54:56.652Z,314.08
2019-05-17T02:55:56.705Z,314.38
2019-05-17T02:56:56.620Z,313.73
2019-05-17T02:57:56.649Z,314.03
2019-05-17T02:58:56.610Z,314.78
2019-05-17T02:59:56.585Z,313.74
2019-05-17T03:00:56.614Z,314.10
2019-05-17T03:01:56.574Z,314.73
2019-05-17T03:02:56.571Z,313.82
2019-05-17T03:03:56.554Z,313.75
2019-05-17T03:04:56.539Z,314.34
2019-05-17T03:05:56.550Z,314.10
2019-05-17T03:06:56.525Z,313.95
2019-05-17T03:07:56.503Z,316.54
2019-05-17T03:08:56.499Z,317.05
2019-05-17T03:10:12.070Z,316.68
2019-05-17T03:10:57.491Z,316.92
2019-05-17T03:11:57.230Z,317.31
2019-05-17T03:12:56.462Z,315.78
2019-05-17T03:13:56.433Z,316.57
2019-05-17T03:14:56.442Z,317.09
2019-05-17T03:15:56.448Z,316.58
2019-05-17T03:16:56.411Z,316.32
2019-05-17T03:17:56.396Z,313.97
2019-05-17T03:18:56.386Z,314.72
2019-05-17T03:19:56.365Z,315.96
2019-05-17T03:20:56.382Z,315.62
2019-05-17T03:21:56.352Z,316.38
2019-05-17T03:22:56.348Z,316.28
2019-05-17T03:23:56.344Z,316.19
2019-05-17T03:24:56.315Z,314.22
2019-05-17T03:25:56.319Z,314.11
2019-05-17T03:26:56.293Z,313.45
2019-05-17T03:27:56.302Z,313.95
2019-05-17T03:28:56.280Z,313.64
2019-05-17T03:29:56.269Z,313.96
2019-05-17T03:30:57.140Z,314.17
2019-05-17T03:32:00.151Z,313.50
2019-05-17T03:32:57.077Z,314.10
2019-05-17T03:33:56.379Z,315.94
2019-05-17T03:34:56.814Z,313.93
2019-05-17T03:35:57.130Z,313.68
2019-05-17T03:36:57.001Z,313.37
2019-05-17T03:37:56.190Z,313.60
2019-05-17T03:38:56.166Z,313.62
2019-05-17T03:39:56.155Z,313.84
2019-05-17T03:41:11.954Z,314.28
2019-05-17T03:41:57.142Z,314.10
2019-05-17T03:42:56.140Z,314.57
2019-05-17T03:43:56.111Z,313.89
2019-05-17T03:44:56.099Z,314.50
2019-05-17T03:45:56.120Z,316.11
2019-05-17T03:46:56.097Z,314.41
2019-05-17T03:47:56.065Z,316.56
2019-05-17T03:48:56.059Z,314.24
2019-05-17T03:49:56.044Z,314.34
2019-05-17T03:50:56.030Z,314.10
2019-05-17T03:51:56.029Z,314.46
2019-05-17T03:52:56.017Z,314.27
2019-05-17T03:53:56.000Z,313.82
2019-05-17T03:54:55.983Z,314.16
2019-05-17T03:55:55.971Z,313.70
2019-05-17T03:56:55.983Z,314.46
2019-05-17T03:57:55.944Z,314.85
2019-05-17T03:58:55.942Z,314.94
2019-05-17T03:59:55.937Z,314.52
2019-05-17T04:00:55.943Z,314.85
2019-05-17T04:01:55.923Z,315.32
2019-05-17T04:02:55.909Z,314.45
2019-05-17T04:03:55.879Z,314.48
2019-05-17T04:04:55.869Z,314.99
2019-05-17T04:05:55.880Z,314.51
2019-05-17T04:06:55.864Z,314.61
2019-05-17T04:07:55.856Z,314.43
2019-05-17T04:08:55.825Z,315.11
2019-05-17T04:09:55.815Z,315.17
2019-05-17T04:10:55.829Z,314.73
2019-05-17T04:11:55.811Z,315.41
2019-05-17T04:12:55.779Z,315.46
2019-05-17T04:13:55.764Z,314.73
2019-05-17T04:14:55.773Z,314.91
2019-05-17T04:15:55.815Z,315.07
2019-05-17T04:16:55.778Z,314.83
2019-05-17T04:17:55.730Z,315.23
2019-05-17T04:18:55.717Z,314.84
2019-05-17T04:19:55.718Z,315.35
2019-05-17T04:20:55.720Z,314.51
2019-05-17T04:21:55.712Z,314.74
2019-05-17T04:22:55.670Z,315.07
2019-05-17T04:23:55.658Z,315.31
2019-05-17T04:24:55.653Z,314.96
2019-05-17T04:25:55.633Z,315.15
2019-05-17T04:26:55.648Z,316.38
2019-05-17T04:27:55.614Z,315.37
2019-05-17T04:28:55.621Z,315.89
2019-05-17T04:29:55.585Z,315.83
2019-05-17T04:30:55.591Z,315.06
2019-05-17T04:31:55.592Z,315.04
2019-05-17T04:32:55.561Z,316.63
2019-05-17T04:33:55.547Z,315.44
2019-05-17T04:34:55.552Z,317.47
2019-05-17T04:35:55.549Z,315.21
2019-05-17T04:36:55.518Z,316.08
2019-05-17T04:37:55.547Z,315.42
2019-05-17T04:38:55.521Z,315.18
2019-05-17T04:39:55.480Z,317.46
2019-05-17T04:40:55.477Z,315.91
2019-05-17T04:41:55.471Z,315.38
2019-05-17T04:42:55.498Z,315.52
2019-05-17T04:43:55.441Z,315.03
2019-05-17T04:44:55.416Z,315.82
2019-05-17T04:45:55.427Z,316.72
2019-05-17T04:46:55.400Z,315.38
2019-05-17T04:47:55.446Z,316.50
2019-05-17T04:48:55.393Z,315.27
2019-05-17T04:49:55.358Z,314.69
2019-05-17T04:50:55.360Z,315.49
2019-05-17T04:51:55.344Z,315.33
2019-05-17T04:52:55.355Z,315.55
2019-05-17T04:53:55.331Z,318.02
2019-05-17T04:54:55.365Z,317.49
2019-05-17T04:55:55.322Z,316.98
2019-05-17T04:56:55.295Z,316.95
2019-05-17T04:57:55.305Z,316.41
2019-05-17T04:58:55.273Z,317.92
2019-05-17T04:59:55.277Z,317.98
2019-05-17T05:00:55.264Z,323.02
2019-05-17T05:01:55.242Z,319.41
2019-05-17T05:02:55.258Z,319.12
2019-05-17T05:03:55.266Z,319.11
2019-05-17T05:04:55.198Z,319.05
2019-05-17T05:05:55.201Z,318.78
2019-05-17T05:06:55.224Z,318.10
2019-05-17T05:07:55.273Z,317.87
2019-05-17T05:08:55.159Z,316.32
2019-05-17T05:09:55.149Z,316.07
2019-05-17T05:10:55.176Z,315.64
2019-05-17T05:12:01.099Z,316.19
2019-05-17T05:12:56.140Z,315.76
2019-05-17T05:13:55.107Z,315.79
2019-05-17T05:14:55.090Z,315.82
2019-05-17T05:15:55.068Z,315.65
2019-05-17T05:16:55.071Z,315.58
2019-05-17T05:17:55.099Z,316.26
2019-05-17T05:18:55.047Z,315.17
2019-05-17T05:19:55.070Z,318.70
2019-05-17T05:20:55.019Z,318.34
2019-05-17T05:21:55.019Z,318.77
2019-05-17T05:22:55.058Z,318.67
2019-05-17T05:23:54.984Z,317.57
2019-05-17T05:24:54.976Z,316.38
2019-05-17T05:25:54.982Z,318.44
2019-05-17T05:26:54.977Z,316.84
2019-05-17T05:27:54.981Z,315.83
2019-05-17T05:28:54.932Z,316.35
2019-05-17T05:29:54.928Z,317.13
2019-05-17T05:30:54.911Z,316.96
2019-05-17T05:31:54.931Z,318.12
2019-05-17T05:32:54.889Z,316.22
2019-05-17T05:33:54.899Z,315.83
2019-05-17T05:34:54.865Z,317.61
2019-05-17T05:35:54.852Z,318.46
2019-05-17T05:36:54.847Z,318.35
2019-05-17T05:37:54.859Z,318.23
2019-05-17T05:38:54.859Z,316.74
2019-05-17T05:39:54.822Z,318.09
2019-05-17T05:40:54.796Z,317.94
2019-05-17T05:42:06.316Z,318.32
2019-05-17T05:42:55.775Z,318.62
2019-05-17T05:43:54.790Z,319.41
2019-05-17T05:44:55.552Z,319.75
2019-05-17T05:45:54.773Z,317.98
2019-05-17T05:46:54.744Z,320.07
2019-05-17T05:47:54.726Z,317.89
2019-05-17T05:48:54.734Z,319.62
2019-05-17T05:49:54.701Z,319.89
2019-05-17T05:50:54.690Z,318.74
2019-05-17T05:51:54.703Z,318.79
2019-05-17T05:52:54.677Z,318.11
2019-05-17T05:53:54.676Z,317.49
2019-05-17T05:54:54.646Z,319.82
2019-05-17T05:55:54.645Z,317.90
2019-05-17T05:56:54.635Z,319.63
2019-05-17T05:57:54.616Z,317.87
2019-05-17T05:58:54.631Z,316.94
2019-05-17T05:59:54.610Z,316.70
2019-05-17T06:00:54.577Z,316.91
2019-05-17T06:01:54.576Z,316.67
2019-05-17T06:02:54.561Z,318.65
2019-05-17T06:03:54.599Z,317.18
2019-05-17T06:04:54.524Z,316.96
2019-05-17T06:05:54.545Z,316.98
2019-05-17T06:06:54.513Z,317.06
2019-05-17T06:07:54.506Z,317.59
2019-05-17T06:08:54.525Z,317.07
2019-05-17T06:09:54.478Z,316.88
2019-05-17T06:10:54.471Z,316.91
2019-05-17T06:11:54.449Z,316.85
2019-05-17T06:12:54.453Z,317.02
2019-05-17T06:13:54.464Z,316.01
2019-05-17T06:14:54.432Z,316.20
2019-05-17T06:15:54.413Z,317.14
2019-05-17T06:16:54.409Z,316.39
2019-05-17T06:17:54.384Z,316.19
2019-05-17T06:18:54.381Z,316.19
2019-05-17T06:19:54.395Z,316.19
2019-05-17T06:20:54.357Z,317.12
2019-05-17T06:21:54.354Z,316.59
2019-05-17T06:22:54.336Z,316.23
2019-05-17T06:23:54.322Z,315.12
2019-05-17T06:24:54.325Z,315.60
2019-05-17T06:25:54.290Z,316.44
2019-05-17T06:26:54.295Z,315.50
2019-05-17T06:27:54.279Z,315.10
2019-05-17T06:28:54.272Z,316.39
2019-05-17T06:29:54.275Z,314.85
2019-05-17T06:30:54.254Z,316.53
2019-05-17T06:31:54.233Z,315.56
2019-05-17T06:32:54.227Z,316.77
2019-05-17T06:33:54.212Z,316.95
2019-05-17T06:34:54.233Z,316.89
2019-05-17T06:35:54.183Z,316.52
2019-05-17T06:36:54.190Z,316.80
2019-05-17T06:37:54.161Z,316.16
2019-05-17T06:38:54.205Z,316.32
2019-05-17T06:39:54.181Z,316.22
2019-05-17T06:40:54.140Z,316.13
2019-05-17T06:41:54.131Z,315.10
2019-05-17T06:42:54.118Z,315.76
2019-05-17T06:43:54.131Z,317.27
2019-05-17T06:44:54.154Z,317.32
2019-05-17T06:45:54.074Z,315.70
2019-05-17T06:46:54.106Z,316.05
2019-05-17T06:47:54.064Z,315.62
2019-05-17T06:48:54.038Z,315.60
2019-05-17T06:49:54.062Z,315.04
2019-05-17T06:50:54.018Z,315.30
2019-05-17T06:51:54.018Z,316.03
2019-05-17T06:52:54.000Z,315.68
2019-05-17T06:53:53.983Z,315.93
2019-05-17T06:54:54.003Z,319.70
2019-05-17T06:55:53.971Z,318.90
2019-05-17T06:56:53.956Z,317.55
2019-05-17T06:57:53.949Z,318.38
2019-05-17T06:58:53.930Z,316.97
2019-05-17T06:59:53.953Z,316.69
2019-05-17T07:00:53.917Z,316.27
2019-05-17T07:01:53.903Z,314.79
2019-05-17T07:02:53.889Z,314.89
2019-05-17T07:03:53.874Z,314.19
2019-05-17T07:04:53.900Z,313.60
2019-05-17T07:05:53.861Z,313.79
2019-05-17T07:06:53.871Z,313.83
2019-05-17T07:07:53.845Z,315.02
2019-05-17T07:08:53.835Z,313.58
2019-05-17T07:09:53.813Z,313.58
2019-05-17T07:10:53.862Z,313.11
2019-05-17T07:11:53.815Z,313.40
2019-05-17T07:12:58.556Z,313.07
2019-05-17T07:13:54.763Z,313.66
2019-05-17T07:14:53.762Z,313.76
2019-05-17T07:15:53.782Z,313.79
2019-05-17T07:16:53.741Z,313.48
2019-05-17T07:17:53.740Z,312.81
2019-05-17T07:18:53.712Z,312.95
2019-05-17T07:19:53.713Z,314.38
2019-05-17T07:20:53.714Z,315.83
2019-05-17T07:21:53.703Z,315.34
2019-05-17T07:22:53.692Z,313.88
2019-05-17T07:23:53.650Z,314.47
2019-05-17T07:24:53.674Z,314.68
2019-05-17T07:25:53.655Z,314.60
2019-05-17T07:26:53.614Z,314.20
2019-05-17T07:27:53.610Z,313.88
2019-05-17T07:28:53.618Z,314.15
2019-05-17T07:29:53.596Z,314.41
2019-05-17T07:30:53.602Z,313.02
2019-05-17T07:31:53.577Z,313.38
2019-05-17T07:32:53.573Z,314.16
2019-05-17T07:33:53.558Z,314.74
2019-05-17T07:34:53.549Z,313.35
2019-05-17T07:35:53.547Z,314.10
2019-05-17T07:36:53.521Z,314.39
2019-05-17T07:37:53.551Z,314.56
2019-05-17T07:38:53.484Z,313.45
2019-05-17T07:40:01.299Z,313.70
2019-05-17T07:40:54.493Z,315.21
2019-05-17T07:41:53.461Z,314.60
2019-05-17T07:43:05.735Z,313.63
2019-05-17T07:43:54.438Z,313.04
2019-05-17T07:44:53.418Z,313.25
2019-05-17T07:45:53.433Z,312.61
2019-05-17T07:46:53.394Z,316.49
2019-05-17T07:47:53.393Z,313.65
2019-05-17T07:48:53.378Z,312.71
2019-05-17T07:49:54.644Z,313.15
2019-05-17T07:50:53.420Z,312.81
2019-05-17T07:51:53.336Z,311.88
2019-05-17T07:52:53.336Z,313.16
2019-05-17T07:53:53.338Z,311.96
2019-05-17T07:54:53.318Z,313.24
2019-05-17T07:55:53.338Z,314.01
2019-05-17T07:56:53.301Z,312.59
2019-05-17T07:57:53.283Z,313.05
2019-05-17T07:58:53.268Z,313.45
2019-05-17T07:59:53.277Z,313.52
2019-05-17T08:00:53.272Z,313.56
2019-05-17T08:01:53.236Z,312.69
2019-05-17T08:02:53.237Z,313.05
2019-05-17T08:03:53.207Z,310.90
2019-05-17T08:04:53.236Z,310.18
2019-05-17T08:05:53.223Z,310.48
2019-05-17T08:06:53.173Z,311.11
2019-05-17T08:07:53.160Z,310.99
2019-05-17T08:08:53.175Z,310.50
2019-05-17T08:09:53.155Z,310.98
2019-05-17T08:10:53.157Z,310.89
2019-05-17T08:11:53.129Z,310.08
2019-05-17T08:12:53.104Z,310.48
2019-05-17T08:13:53.114Z,310.41
2019-05-17T08:14:53.088Z,310.39
2019-05-17T08:15:53.086Z,310.19
2019-05-17T08:16:53.065Z,311.85
2019-05-17T08:17:53.062Z,310.98
2019-05-17T08:18:53.048Z,312.01
2019-05-17T08:19:53.051Z,312.40
2019-05-17T08:20:53.099Z,313.36
2019-05-17T08:21:53.057Z,312.58
2019-05-17T08:22:53.040Z,311.13
2019-05-17T08:23:53.023Z,313.63
2019-05-17T08:24:53.027Z,311.74
2019-05-17T08:25:56.217Z,311.48
2019-05-17T08:26:53.007Z,311.09
2019-05-17T08:27:52.986Z,311.26
2019-05-17T08:28:53.010Z,312.36
2019-05-17T08:29:52.956Z,310.63
2019-05-17T08:30:52.994Z,310.20
2019-05-17T08:31:52.955Z,309.66
2019-05-17T08:32:52.915Z,310.42
2019-05-17T08:33:52.907Z,310.20
2019-05-17T08:34:52.926Z,310.66
2019-05-17T08:35:52.950Z,309.48
2019-05-17T08:36:52.996Z,309.89
2019-05-17T08:37:52.976Z,310.39
2019-05-17T08:38:52.924Z,310.99
2019-05-17T08:39:52.899Z,311.27
2019-05-17T08:40:52.904Z,312.01
2019-05-17T08:41:52.911Z,312.15
2019-05-17T08:42:52.776Z,312.04
2019-05-17T08:43:52.910Z,311.88
2019-05-17T08:44:52.754Z,311.61
2019-05-17T08:45:52.789Z,310.82
2019-05-17T08:46:52.776Z,309.43
2019-05-17T08:47:52.747Z,309.85
2019-05-17T08:48:52.844Z,310.75
2019-05-17T08:49:52.703Z,310.11
2019-05-17T08:50:52.692Z,309.67
2019-05-17T08:51:52.713Z,310.82
2019-05-17T08:52:52.678Z,312.01
2019-05-17T08:53:52.661Z,312.03
2019-05-17T08:54:52.662Z,310.29
2019-05-17T08:55:52.644Z,309.63
2019-05-17T08:56:52.662Z,310.96
2019-05-17T08:57:52.616Z,311.25
2019-05-17T08:58:52.599Z,311.92
2019-05-17T08:59:52.611Z,311.23
2019-05-17T09:00:52.579Z,312.79
2019-05-17T09:01:52.605Z,311.21
2019-05-17T09:02:52.549Z,309.18
2019-05-17T09:03:52.544Z,309.66
2019-05-17T09:04:52.536Z,311.77
2019-05-17T09:05:53.016Z,311.48
2019-05-17T09:06:52.569Z,311.22
2019-05-17T09:07:52.508Z,311.27
2019-05-17T09:08:52.484Z,310.60
2019-05-17T09:09:52.478Z,310.53
2019-05-17T09:10:52.468Z,310.50
2019-05-17T09:11:52.489Z,312.15
2019-05-17T09:12:52.440Z,312.25
2019-05-17T09:13:58.068Z,313.40
2019-05-17T09:14:53.418Z,310.14
2019-05-17T09:15:52.417Z,310.92
2019-05-17T09:16:52.417Z,311.52
2019-05-17T09:17:52.389Z,311.08
2019-05-17T09:18:52.384Z,311.39
2019-05-17T09:19:54.322Z,310.03
2019-05-17T09:20:52.369Z,310.00
2019-05-17T09:21:52.394Z,309.56
2019-05-17T09:22:52.339Z,310.63
2019-05-17T09:23:52.315Z,309.79
2019-05-17T09:24:52.309Z,310.36
2019-05-17T09:25:52.298Z,310.13
2019-05-17T09:26:52.319Z,310.65
2019-05-17T09:27:52.281Z,310.59
2019-05-17T09:28:52.257Z,311.26
2019-05-17T09:29:52.300Z,310.25
2019-05-17T09:30:52.245Z,311.20
2019-05-17T09:31:52.262Z,310.64
2019-05-17T09:32:52.244Z,309.05
2019-05-17T09:33:52.203Z,311.33
2019-05-17T09:34:52.185Z,310.50
2019-05-17T09:35:52.192Z,309.22
2019-05-17T09:36:52.178Z,309.59
2019-05-17T09:37:52.176Z,309.13
2019-05-17T09:38:52.157Z,309.99
2019-05-17T09:39:52.153Z,309.57
2019-05-17T09:40:52.131Z,310.21
2019-05-17T09:41:52.123Z,310.39
2019-05-17T09:42:52.130Z,310.87
2019-05-17T09:43:52.090Z,310.13
2019-05-17T09:44:52.111Z,310.33
2019-05-17T09:45:52.066Z,309.81
2019-05-17T09:46:52.052Z,309.61
2019-05-17T09:47:52.076Z,311.18
2019-05-17T09:48:52.045Z,309.97
2019-05-17T09:49:52.031Z,304.06
2019-05-17T09:50:52.029Z,309.64
2019-05-17T09:51:52.003Z,310.48
2019-05-17T09:52:52.027Z,310.91
2019-05-17T09:53:51.974Z,303.05
2019-05-17T09:54:51.982Z,310.69
2019-05-17T09:55:51.959Z,309.27
2019-05-17T09:56:51.958Z,310.27
2019-05-17T09:57:51.963Z,310.89
2019-05-17T09:58:51.931Z,311.30
2019-05-17T09:59:51.932Z,311.80
2019-05-17T10:00:51.933Z,311.12
2019-05-17T10:01:51.892Z,304.38
2019-05-17T10:02:51.909Z,310.08
2019-05-17T10:03:51.870Z,304.59
2019-05-17T10:04:51.882Z,310.28
2019-05-17T10:05:51.853Z,305.49
2019-05-17T10:06:51.839Z,310.30
2019-05-17T10:07:51.865Z,304.04
2019-05-17T10:08:51.821Z,309.33
2019-05-17T10:09:51.809Z,303.85
2019-05-17T10:11:04.743Z,309.28
2019-05-17T10:11:52.792Z,309.29
2019-05-17T10:12:51.801Z,309.35
2019-05-17T10:13:51.766Z,309.21
2019-05-17T10:14:51.776Z,309.35
2019-05-17T10:15:51.822Z,310.81
2019-05-17T10:16:51.778Z,309.17
2019-05-17T10:17:51.751Z,309.48
2019-05-17T10:18:51.714Z,310.41
2019-05-17T10:19:51.705Z,311.07
2019-05-17T10:20:51.685Z,309.63
2019-05-17T10:21:51.674Z,309.76
2019-05-17T10:22:51.706Z,310.09
2019-05-17T10:23:51.651Z,309.70
2019-05-17T10:24:51.647Z,311.03
2019-05-17T10:25:51.631Z,310.84
2019-05-17T10:26:51.622Z,312.96
2019-05-17T10:27:51.631Z,313.83
2019-05-17T10:28:51.796Z,312.46
2019-05-17T10:29:51.594Z,311.59
2019-05-17T10:30:52.167Z,312.25
2019-05-17T10:31:51.564Z,312.09
2019-05-17T10:32:51.601Z,310.93
2019-05-17T10:33:51.539Z,310.81
2019-05-17T10:34:51.539Z,311.06
2019-05-17T10:35:51.520Z,310.94
2019-05-17T10:36:51.524Z,310.30
2019-05-17T10:37:51.493Z,310.28
2019-05-17T10:38:51.559Z,310.55
2019-05-17T10:39:51.484Z,310.89
2019-05-17T10:40:51.461Z,311.70
2019-05-17T10:41:51.455Z,311.55
2019-05-17T10:42:51.442Z,308.70
2019-05-17T10:43:51.507Z,309.16
2019-05-17T10:44:54.500Z,307.70
2019-05-17T10:45:51.440Z,309.95
2019-05-17T10:46:51.394Z,310.82
2019-05-17T10:47:51.408Z,309.76
2019-05-17T10:48:51.409Z,309.14
2019-05-17T10:49:51.367Z,308.30
2019-05-17T10:50:51.361Z,309.31
2019-05-17T10:51:51.348Z,309.26
2019-05-17T10:52:51.334Z,308.26
2019-05-17T10:53:51.499Z,309.09
2019-05-17T10:54:51.315Z,308.55
2019-05-17T10:55:51.291Z,309.55
2019-05-17T10:56:51.300Z,309.74
2019-05-17T10:57:51.275Z,309.77
2019-05-17T10:58:51.294Z,309.51
2019-05-17T10:59:51.266Z,310.09
2019-05-17T11:00:51.242Z,309.07
2019-05-17T11:01:51.248Z,310.51
2019-05-17T11:02:51.238Z,311.97
2019-05-17T11:03:51.248Z,309.17
2019-05-17T11:04:51.199Z,309.57
2019-05-17T11:05:51.200Z,309.13
2019-05-17T11:06:51.186Z,308.51
2019-05-17T11:07:51.169Z,309.58
2019-05-17T11:08:51.181Z,308.80
2019-05-17T11:09:51.226Z,309.68
2019-05-17T11:10:51.132Z,308.79
2019-05-17T11:11:51.136Z,309.10
2019-05-17T11:12:51.099Z,309.30
2019-05-17T11:13:52.984Z,308.13
2019-05-17T11:15:09.429Z,307.78
2019-05-17T11:15:52.070Z,308.63
2019-05-17T11:16:51.067Z,308.70
2019-05-17T11:17:51.079Z,308.53
2019-05-17T11:18:51.076Z,308.98
2019-05-17T11:19:51.035Z,309.32
2019-05-17T11:20:51.054Z,309.56
2019-05-17T11:21:51.004Z,309.15
2019-05-17T11:22:51.012Z,308.26
2019-05-17T11:23:50.999Z,308.65
2019-05-17T11:24:50.978Z,308.40
2019-05-17T11:25:50.966Z,308.68
2019-05-17T11:26:50.961Z,308.84
2019-05-17T11:27:50.942Z,309.54
2019-05-17T11:28:50.945Z,302.73
2019-05-17T11:29:50.922Z,308.82
2019-05-17T11:30:50.910Z,303.62
2019-05-17T11:31:50.900Z,309.31
2019-05-17T11:32:50.893Z,303.90
2019-05-17T11:33:50.931Z,309.69
2019-05-17T11:34:50.867Z,309.49
2019-05-17T11:35:50.865Z,309.74
2019-05-17T11:36:50.842Z,303.60
2019-05-17T11:37:50.842Z,308.59
2019-05-17T11:38:50.856Z,303.60
2019-05-17T11:39:50.804Z,309.83
2019-05-17T11:40:50.798Z,304.04
2019-05-17T11:41:50.784Z,309.22
2019-05-17T11:42:50.772Z,303.31
2019-05-17T11:43:50.799Z,308.56
2019-05-17T11:44:50.765Z,303.12
2019-05-17T11:45:50.736Z,303.13
2019-05-17T11:46:50.745Z,303.31
2019-05-17T11:47:50.715Z,303.36
2019-05-17T11:48:50.748Z,303.32
2019-05-17T11:49:50.704Z,303.30
2019-05-17T11:50:50.681Z,304.05
2019-05-17T11:51:50.681Z,309.58
2019-05-17T11:52:50.675Z,303.40
2019-05-17T11:53:50.687Z,302.34
2019-05-17T11:54:50.641Z,303.37
2019-05-17T11:55:50.630Z,309.55
2019-05-17T11:56:50.646Z,303.03
2019-05-17T11:57:50.605Z,311.25
2019-05-17T11:58:50.625Z,305.26
2019-05-17T11:59:50.615Z,311.73
2019-05-17T12:00:50.564Z,306.16
2019-05-17T12:01:50.563Z,312.13
2019-05-17T12:02:50.554Z,306.08
2019-05-17T12:03:50.592Z,310.90
2019-05-17T12:04:50.536Z,304.54
2019-05-17T12:05:50.517Z,309.30
2019-05-17T12:06:50.503Z,302.24
2019-05-17T12:07:50.504Z,308.56
2019-05-17T12:08:50.490Z,303.16
2019-05-17T12:09:50.499Z,309.72
2019-05-17T12:10:50.595Z,306.26
2019-05-17T12:11:50.453Z,310.84
2019-05-17T12:12:50.443Z,304.42
2019-05-17T12:13:50.439Z,309.75
2019-05-17T12:14:50.435Z,303.26
2019-05-17T12:15:50.419Z,302.21
2019-05-17T12:16:50.409Z,303.78
2019-05-17T12:17:50.392Z,305.40
2019-05-17T12:18:50.383Z,303.52
2019-05-17T12:19:50.388Z,302.78
2019-05-17T12:20:50.354Z,303.29
2019-05-17T12:21:50.339Z,303.19
2019-05-17T12:22:50.331Z,303.40
2019-05-17T12:23:50.329Z,309.18
2019-05-17T12:24:50.322Z,303.03
2019-05-17T12:25:50.301Z,309.10
2019-05-17T12:26:50.318Z,304.11
2019-05-17T12:27:50.272Z,308.75
2019-05-17T12:28:50.270Z,303.51